Time;durP1;ratioP1;P1;durP2;ratioP2;P2;SDS_P1;SDS_P2;PMS_P1;PMS_P2;Temp;Humidity;BMP_temperature;BMP_pressure;BME280_temperature;BME280_humidity;BME280_pressure;Samples;Min_cycle;Max_cycle;Signal;HPM_P1;HPM_P2
2023/09/07 00:01:40;;;;;;;2.77;1.90;;;;;;;18.08;81.83;101830.09;5013526;28;20080;-81
2023/09/07 00:04:06;;;;;;;1.97;1.77;;;;;;;18.05;81.53;101825.81;5013052;28;20112;-82
2023/09/07 00:06:32;;;;;;;1.70;1.60;;;;;;;18.04;81.87;101828.50;5013971;28;20026;-82
2023/09/07 00:08:57;;;;;;;2.20;2.00;;;;;;;17.97;82.38;101826.94;5014203;28;20034;-81
2023/09/07 00:11:22;;;;;;;2.97;2.00;;;;;;;17.85;82.50;101809.78;5012579;28;20288;-81
2023/09/07 00:13:48;;;;;;;1.80;1.70;;;;;;;17.93;82.88;101820.06;5013701;28;20045;-82
2023/09/07 00:16:14;;;;;;;1.80;1.57;;;;;;;17.88;83.42;101825.44;5013261;28;20021;-81
2023/09/07 00:18:39;;;;;;;1.73;1.63;;;;;;;17.86;83.11;101827.25;5012972;28;20450;-81
2023/09/07 00:21:04;;;;;;;2.17;1.97;;;;;;;17.82;82.73;101821.25;5013566;28;20113;-81
2023/09/07 00:23:30;;;;;;;1.90;1.80;;;;;;;17.80;83.72;101816.91;5014009;28;20100;-81
2023/09/07 00:25:55;;;;;;;1.80;1.70;;;;;;;17.80;83.30;101828.31;5013137;28;20038;-82
2023/09/07 00:28:22;;;;;;;2.03;1.80;;;;;;;17.75;82.76;101820.56;5013169;28;20466;-82
2023/09/07 00:30:47;;;;;;;1.77;1.67;;;;;;;17.78;83.25;101821.38;5012974;28;20037;-81
2023/09/07 00:33:12;;;;;;;1.87;1.77;;;;;;;17.71;84.49;101816.28;5013223;28;20056;-82
2023/09/07 00:35:38;;;;;;;2.30;2.00;;;;;;;17.73;86.21;101816.28;5013865;28;20033;-82
2023/09/07 00:38:03;;;;;;;2.50;2.30;;;;;;;17.72;87.42;101814.56;5012646;28;20124;-82
2023/09/07 00:40:28;;;;;;;2.87;2.00;;;;;;;17.72;85.48;101809.31;5013250;28;20025;-82
2023/09/07 00:42:54;;;;;;;1.90;1.80;;;;;;;17.73;85.42;101806.63;5013641;28;20068;-82
2023/09/07 00:45:19;;;;;;;1.87;1.77;;;;;;;17.74;85.50;101804.84;5012426;28;20037;-82
2023/09/07 00:47:45;;;;;;;1.90;1.80;;;;;;;17.73;85.51;101805.78;5013341;28;20045;-82
2023/09/07 00:50:14;;;;;;;2.10;1.90;;;;;;;17.76;85.00;101810.91;5013078;28;20429;-81
2023/09/07 00:52:42;;;;;;;2.38;2.17;;;;;;;17.76;85.67;101813.53;5012702;28;20077;-82
2023/09/07 00:55:09;;;;;;;2.10;1.90;;;;;;;17.75;85.65;101814.44;5012363;28;20021;-82
2023/09/07 00:57:35;;;;;;;2.00;1.80;;;;;;;17.74;85.45;101820.59;5013194;28;20033;-82
2023/09/07 01:00:04;;;;;;;1.80;1.70;;;;;;;17.71;85.14;101824.19;5012399;28;20052;-82
2023/09/07 01:02:29;;;;;;;1.80;1.70;;;;;;;17.70;86.52;101818.97;5013340;28;20022;-82
2023/09/07 01:04:55;;;;;;;1.70;1.60;;;;;;;17.69;85.88;101819.88;5013025;28;20033;-82
2023/09/07 01:07:25;;;;;;;1.43;1.33;;;;;;;17.66;86.32;101815.59;5011993;28;20029;-82
2023/09/07 01:09:56;;;;;;;1.50;1.40;;;;;;;17.69;86.56;101817.25;5013429;28;20029;-81
2023/09/07 01:12:21;;;;;;;1.67;1.58;;;;;;;17.68;85.32;101815.53;5012722;28;20109;-82
2023/09/07 01:14:46;;;;;;;2.23;1.90;;;;;;;17.60;85.25;101802.63;5011911;28;20153;-82
2023/09/07 01:17:13;;;;;;;1.97;1.87;;;;;;;17.66;86.51;101815.59;5012708;28;20368;-82
2023/09/07 01:19:39;;;;;;;1.50;1.40;;;;;;;17.61;86.72;101809.59;5012980;28;20025;-82
2023/09/07 01:22:06;;;;;;;1.60;1.50;;;;;;;17.58;86.06;101812.31;5011961;28;20022;-81
2023/09/07 01:24:33;;;;;;;2.20;2.00;;;;;;;17.57;84.95;101803.59;5012650;28;20053;-82
2023/09/07 01:26:59;;;;;;;2.25;2.05;;;;;;;17.53;85.63;101807.19;5011990;28;20044;-82
2023/09/07 01:29:24;;;;;;;2.28;2.03;;;;;;;17.50;85.95;101809.94;5012718;28;20100;-82
2023/09/07 01:31:50;;;;;;;2.00;1.90;;;;;;;17.45;85.66;101801.31;5012786;28;20018;-81
2023/09/07 01:34:15;;;;;;;6.23;3.30;;;;;;;17.35;91.41;101798.09;5011540;28;20034;-82
2023/09/07 01:36:40;;;;;;;4.13;3.00;;;;;;;17.41;86.87;101807.56;5013037;28;20478;-82
2023/09/07 01:39:08;;;;;;;2.83;2.53;;;;;;;17.35;88.05;101805.13;5012592;28;20038;-82
2023/09/07 01:41:34;;;;;;;2.65;2.33;;;;;;;17.30;88.61;101797.38;5011810;28;20450;-82
2023/09/07 01:43:59;;;;;;;2.28;2.08;;;;;;;17.20;88.55;101790.66;5012485;28;20044;-82
2023/09/07 01:46:25;;;;;;;1.90;1.80;;;;;;;17.15;88.79;101798.66;5011789;28;20474;-81
2023/09/07 01:48:50;;;;;;;1.93;1.83;;;;;;;17.14;88.16;101800.41;5012045;28;20050;-82
2023/09/07 01:51:16;;;;;;;1.97;1.87;;;;;;;17.11;87.74;101794.41;5013896;28;20033;-82
2023/09/07 01:53:41;;;;;;;2.40;2.20;;;;;;;17.08;86.73;101792.72;5016111;28;20038;-82
2023/09/07 01:56:06;;;;;;;2.20;2.00;;;;;;;17.07;87.26;101796.25;5015173;28;20076;-81
2023/09/07 01:58:33;;;;;;;1.77;1.67;;;;;;;17.07;87.26;101795.38;5016230;28;20076;-81
2023/09/07 02:00:58;;;;;;;2.20;2.00;;;;;;;17.05;87.55;101798.06;5016590;28;20057;-82
2023/09/07 02:03:26;;;;;;;2.10;1.90;;;;;;;17.05;87.32;101795.44;5015559;28;20124;-81
2023/09/07 02:05:53;;;;;;;2.25;2.05;;;;;;;17.05;88.07;101797.22;5016598;28;20068;-82
2023/09/07 02:08:18;;;;;;;1.70;1.60;;;;;;;17.04;88.11;101795.47;5015866;28;20040;-82
2023/09/07 02:10:44;;;;;;;2.17;1.97;;;;;;;17.01;88.61;101792.94;5015753;28;20022;-82
2023/09/07 02:13:09;;;;;;;2.40;2.20;;;;;;;16.98;89.33;101786.88;5015537;28;20026;-82
2023/09/07 02:15:38;;;;;;;1.93;1.83;;;;;;;16.97;89.17;101786.91;5015435;28;20389;-82
2023/09/07 02:18:05;;;;;;;2.20;2.00;;;;;;;16.97;88.23;101797.41;5014954;28;20553;-82
2023/09/07 02:20:31;;;;;;;2.03;1.90;;;;;;;16.98;88.12;101788.66;5016260;28;20079;-82
2023/09/07 02:22:56;;;;;;;2.00;1.80;;;;;;;16.98;88.46;101791.25;5016131;28;20022;-82
2023/09/07 02:25:22;;;;;;;1.90;1.80;;;;;;;16.95;90.34;101784.31;5014943;28;20030;-82
2023/09/07 02:27:47;;;;;;;1.80;1.70;;;;;;;16.94;89.32;101789.63;5015977;28;20549;-82
2023/09/07 02:30:12;;;;;;;2.53;2.20;;;;;;;16.92;89.05;101791.38;5015588;28;20034;-82
2023/09/07 02:32:38;;;;;;;3.00;2.43;;;;;;;16.92;90.44;101794.00;5015485;28;20030;-82
2023/09/07 02:35:04;;;;;;;2.33;2.00;;;;;;;16.92;89.25;101791.38;5015134;28;20037;-82
2023/09/07 02:37:29;;;;;;;2.20;2.00;;;;;;;16.81;88.56;101775.94;5015290;28;20084;-81
2023/09/07 02:39:58;;;;;;;2.20;2.00;;;;;;;16.92;88.20;101794.88;5015747;28;20033;-81
2023/09/07 02:42:24;;;;;;;2.28;2.03;;;;;;;16.88;88.54;101790.59;5015137;28;20014;-81
2023/09/07 02:44:49;;;;;;;2.45;2.22;;;;;;;16.88;88.73;101789.75;5014560;28;20084;-82
2023/09/07 02:47:15;;;;;;;3.10;2.57;;;;;;;16.86;90.25;101788.94;5015433;28;20101;-82
2023/09/07 02:49:41;;;;;;;2.77;2.40;;;;;;;16.86;90.40;101791.56;5015557;28;20024;-82
2023/09/07 02:52:06;;;;;;;3.07;2.20;;;;;;;16.82;90.55;101791.63;5014076;28;20109;-82
2023/09/07 02:54:32;;;;;;;2.47;2.27;;;;;;;16.79;90.15;101788.25;5015627;28;20088;-81
2023/09/07 02:56:57;;;;;;;2.20;2.00;;;;;;;16.75;89.73;101784.84;5015150;28;20022;-82
2023/09/07 02:59:22;;;;;;;2.30;2.10;;;;;;;16.76;90.09;101783.06;5014009;28;20497;-81
2023/09/07 03:01:48;;;;;;;2.17;1.97;;;;;;;16.70;89.73;101781.47;5014959;28;20026;-81
2023/09/07 03:04:13;;;;;;;2.13;2.00;;;;;;;16.70;89.21;101781.47;5013573;28;20025;-82
2023/09/07 03:06:38;;;;;;;2.00;1.90;;;;;;;16.70;90.06;101775.38;5014585;28;20478;-82
2023/09/07 03:09:08;;;;;;;2.10;1.90;;;;;;;16.68;90.00;101778.03;5014897;28;20532;-81
2023/09/07 03:11:34;;;;;;;2.40;2.20;;;;;;;16.63;88.57;101774.69;5015125;28;20445;-82
2023/09/07 03:14:00;;;;;;;2.05;1.95;;;;;;;16.66;89.69;101782.47;5014477;28;20049;-82
2023/09/07 03:16:25;;;;;;;3.03;1.97;;;;;;;16.63;93.04;101779.91;5015062;28;20435;-82
2023/09/07 03:18:51;;;;;;;5.70;4.00;;;;;;;16.62;92.57;101784.28;5015290;28;20088;-82
2023/09/07 03:21:17;;;;;;;4.20;3.13;;;;;;;16.62;92.33;101788.69;5014052;28;20084;-82
2023/09/07 03:23:44;;;;;;;3.33;2.72;;;;;;;16.61;91.72;101786.94;5015181;28;20026;-82
2023/09/07 03:26:10;;;;;;;2.75;2.30;;;;;;;16.55;91.15;101784.50;5014540;28;20018;-81
2023/09/07 03:28:35;;;;;;;2.63;2.30;;;;;;;16.54;91.55;101788.00;5013939;28;20037;-82
2023/09/07 03:31:02;;;;;;;2.40;2.20;;;;;;;16.51;91.00;101784.56;5015136;28;20109;-82
2023/09/07 03:33:27;;;;;;;;;;;;;;;16.52;90.75;101782.78;5015459;28;20049;-82
2023/09/07 03:35:53;;;;;;;2.20;2.00;;;;;;;16.47;89.93;101779.44;5013975;28;20349;-81
2023/09/07 03:38:18;;;;;;;2.30;2.10;;;;;;;16.47;89.90;101789.94;5014431;28;20104;-82
2023/09/07 03:40:44;;;;;;;2.23;2.03;;;;;;;16.45;90.53;101796.97;5013831;28;20364;-81
2023/09/07 03:43:09;;;;;;;2.20;2.00;;;;;;;16.43;90.37;101798.75;5014110;28;20037;-81
2023/09/07 03:45:35;;;;;;;1.90;1.80;;;;;;;16.40;90.14;101804.94;5014741;28;20041;-82
2023/09/07 03:48:00;;;;;;;2.13;1.93;;;;;;;16.36;90.57;101803.28;5013523;28;20058;-81
2023/09/07 03:50:28;;;;;;;1.90;1.80;;;;;;;16.33;90.86;101804.22;5014436;28;20442;-81
2023/09/07 03:52:53;;;;;;;2.25;2.00;;;;;;;16.17;91.77;101785.41;4995186;28;20043;-82
2023/09/07 03:55:19;;;;;;;2.07;1.83;;;;;;;16.19;90.96;101788.84;4993594;28;20037;-82
2023/09/07 03:57:44;;;;;;;2.20;2.00;;;;;;;16.22;91.05;101795.75;4995007;28;20062;-82
2023/09/07 04:00:11;;;;;;;1.80;1.70;;;;;;;16.16;90.23;101793.25;4994608;28;20040;-82
2023/09/07 04:02:36;;;;;;;2.97;2.60;;;;;;;16.15;93.93;101795.03;4994158;28;20109;-82
2023/09/07 04:05:04;;;;;;;2.73;2.33;;;;;;;16.17;92.67;101800.22;4994856;28;20097;-82
2023/09/07 04:07:30;;;;;;;2.65;2.30;;;;;;;16.12;91.48;101789.88;4994681;28;20034;-83
2023/09/07 04:09:58;;;;;;;2.00;1.90;;;;;;;16.10;91.47;101794.28;4993739;28;20046;-83
2023/09/07 04:12:24;;;;;;;2.30;2.10;;;;;;;16.09;90.82;101792.59;4994098;28;20026;-82
2023/09/07 04:14:49;;;;;;;2.42;2.22;;;;;;;16.07;90.09;101786.50;4993942;28;20030;-83
2023/09/07 04:17:15;;;;;;;3.23;2.33;;;;;;;16.09;90.34;101795.19;4993721;28;20018;-83
2023/09/07 04:19:40;;;;;;;2.43;2.23;;;;;;;16.08;92.05;101787.34;4994288;28;20509;-83
2023/09/07 04:22:05;;;;;;;2.70;2.40;;;;;;;15.95;91.44;101774.53;4994053;28;20026;-82
2023/09/07 04:24:30;;;;;;;2.37;2.10;;;;;;;16.03;91.55;101788.34;4993633;28;20109;-82
2023/09/07 04:27:03;;;;;;;2.33;2.13;;;;;;;16.03;91.60;101790.09;4993907;28;20076;-82
2023/09/07 04:29:29;;;;;;;2.50;2.17;;;;;;;15.99;91.16;101781.44;4994221;28;20027;-82
2023/09/07 04:31:54;;;;;;;2.40;2.20;;;;;;;16.00;92.30;101793.66;4993499;28;20038;-82
2023/09/07 04:34:21;;;;;;;2.50;2.27;;;;;;;15.98;90.31;101802.44;4994476;28;20026;-82
2023/09/07 04:36:46;;;;;;;3.22;2.47;;;;;;;15.93;90.83;101799.03;4993954;28;20467;-82
2023/09/07 04:39:14;;;;;;;2.40;2.20;;;;;;;15.94;90.99;101806.00;5004853;28;20022;-82
2023/09/07 04:41:39;;;;;;;2.20;2.00;;;;;;;15.85;91.65;101792.25;5013513;28;20037;-82
2023/09/07 04:44:05;;;;;;;2.03;1.87;;;;;;;15.87;91.26;101790.47;5012676;28;20026;-82
2023/09/07 04:46:30;;;;;;;2.20;2.00;;;;;;;15.82;91.99;101794.03;5013548;28;20030;-82
2023/09/07 04:48:55;;;;;;;2.20;2.00;;;;;;;15.85;91.16;101801.81;5013611;28;20036;-81
2023/09/07 04:51:22;;;;;;;2.93;2.20;;;;;;;15.81;92.30;101805.41;5012281;28;20105;-81
2023/09/07 04:53:47;;;;;;;1.83;1.73;;;;;;;15.79;91.20;101804.56;5013072;28;20050;-81
2023/09/07 04:56:13;;;;;;;2.57;2.30;;;;;;;15.74;92.56;101802.91;5012365;28;20487;-81
2023/09/07 04:58:38;;;;;;;1.97;1.83;;;;;;;15.69;91.96;101799.53;5012646;28;20128;-81
2023/09/07 05:01:11;;;;;;;2.20;2.00;;;;;;;15.68;92.36;101802.16;5013062;28;20026;-81
2023/09/07 05:03:37;;;;;;;2.03;1.88;;;;;;;15.67;92.31;101803.06;5013100;28;20022;-81
2023/09/07 05:06:04;;;;;;;1.90;1.80;;;;;;;15.66;92.08;101804.81;5012108;28;20382;-81
2023/09/07 05:08:30;;;;;;;2.30;2.10;;;;;;;15.65;91.41;101802.25;5013090;28;20018;-81
2023/09/07 05:10:57;;;;;;;2.13;1.92;;;;;;;15.53;91.32;101788.53;5013094;28;20109;-81
2023/09/07 05:13:23;;;;;;;2.33;2.03;;;;;;;15.53;91.17;101795.50;5012041;28;20022;-82
2023/09/07 05:15:55;;;;;;;2.22;2.03;;;;;;;15.55;91.88;101801.56;5013286;28;20029;-81
2023/09/07 05:18:22;;;;;;;2.67;1.80;;;;;;;15.58;91.60;101817.22;5012638;28;20056;-81
2023/09/07 05:20:51;;;;;;;1.90;1.80;;;;;;;15.57;91.42;101811.09;5012214;28;20109;-81
2023/09/07 05:23:19;;;;;;;2.33;2.13;;;;;;;15.59;90.98;101816.31;5012651;28;20509;-81
2023/09/07 05:25:45;;;;;;;2.47;2.20;;;;;;;15.62;91.03;101823.25;5012400;28;20101;-81
2023/09/07 05:28:13;;;;;;;1.98;1.85;;;;;;;15.61;91.94;101824.97;5012111;28;20096;-81
2023/09/07 05:30:38;;;;;;;2.20;2.00;;;;;;;15.58;91.15;101822.44;5012843;28;20030;-81
2023/09/07 05:33:04;;;;;;;2.47;2.20;;;;;;;15.55;90.78;101815.50;5012357;28;20048;-82
2023/09/07 05:35:32;;;;;;;2.30;2.10;;;;;;;15.54;90.82;101824.25;5012247;28;20116;-81
2023/09/07 05:37:57;;;;;;;2.72;2.25;;;;;;;15.54;90.77;101828.63;5012340;28;20065;-81
2023/09/07 05:40:29;;;;;;;2.10;1.90;;;;;;;15.55;91.07;101832.97;5011027;28;20116;-81
2023/09/07 05:42:54;;;;;;;2.40;2.20;;;;;;;15.55;90.57;101833.81;5012902;28;20597;-82
2023/09/07 05:45:20;;;;;;;2.80;2.17;;;;;;;15.51;90.86;101836.53;5012262;28;20089;-80
2023/09/07 05:47:45;;;;;;;2.90;2.30;;;;;;;15.52;91.10;101836.50;5012063;28;20030;-81
2023/09/07 05:50:10;;;;;;;2.97;2.07;;;;;;;15.48;91.31;101834.00;5012566;28;20018;-80
2023/09/07 05:52:36;;;;;;;3.70;2.43;;;;;;;15.50;92.82;101838.28;5012244;28;20050;-80
2023/09/07 05:55:01;;;;;;;2.40;2.20;;;;;;;15.49;92.78;101831.34;5012240;28;20022;-81
2023/09/07 05:57:26;;;;;;;3.07;2.43;;;;;;;15.49;92.59;101841.81;5012410;28;20021;-81
2023/09/07 05:59:52;;;;;;;2.30;2.10;;;;;;;15.51;92.32;101839.16;5012763;28;20026;-81
2023/09/07 06:02:17;;;;;;;2.70;2.03;;;;;;;15.51;92.26;101839.16;5011438;28;20037;-80
2023/09/07 06:04:42;;;;;;;2.33;2.03;;;;;;;15.49;92.15;101835.69;5012154;28;20109;-81
2023/09/07 06:07:08;;;;;;;2.53;2.30;;;;;;;15.53;91.85;101846.09;5011936;28;20033;-81
2023/09/07 06:09:33;;;;;;;2.60;2.20;;;;;;;15.57;91.90;101854.75;5011724;28;20026;-81
2023/09/07 06:12:02;;;;;;;2.47;2.10;;;;;;;15.60;92.95;101854.66;5012450;28;20034;-81
2023/09/07 06:14:28;;;;;;;2.53;2.33;;;;;;;15.59;93.82;101852.97;5011932;28;20108;-81
2023/09/07 06:16:53;;;;;;;5.60;3.70;;;;;;;15.58;98.70;101849.47;5011738;28;20426;-81
2023/09/07 06:19:19;;;;;;;5.60;3.70;;;;;;;15.60;98.40;101858.16;5011752;28;20036;-81
2023/09/07 06:21:45;;;;;;;9.38;4.45;;;;;;;15.62;98.45;101850.25;5012599;28;20044;-81
2023/09/07 06:24:10;;;;;;;6.53;3.80;;;;;;;15.74;97.39;101852.63;5011328;28;20026;-83
2023/09/07 06:26:36;;;;;;;4.43;3.10;;;;;;;15.83;97.32;101859.44;5012496;28;20033;-82
2023/09/07 06:29:01;;;;;;;4.37;2.80;;;;;;;15.93;96.74;101861.88;5012219;28;20366;-82
2023/09/07 06:31:26;;;;;;;3.90;3.20;;;;;;;16.03;97.75;101866.91;5011086;28;20030;-82
2023/09/07 06:33:51;;;;;;;7.33;4.63;;;;;;;16.13;99.10;101859.69;5011874;28;20101;-83
2023/09/07 06:36:17;;;;;;;6.90;4.20;;;;;;;16.27;98.52;101867.22;5011865;28;20411;-83
2023/09/07 06:38:42;;;;;;;9.87;5.57;;;;;;;16.39;99.07;101867.81;5014077;28;20022;-83
2023/09/07 06:41:09;;;;;;;8.13;4.53;;;;;;;16.46;99.13;101862.41;5015694;28;20060;-83
2023/09/07 06:43:34;;;;;;;;;;;;;;;16.58;95.39;101863.91;5015437;28;20041;-83
2023/09/07 06:46:07;;;;;;;12.20;6.40;;;;;;;16.68;97.14;101869.75;5015728;28;19983;-83
2023/09/07 06:48:33;;;;;;;9.63;5.80;;;;;;;16.74;97.79;101856.50;5015251;28;20033;-83
2023/09/07 06:51:06;;;;;;;9.97;5.43;;;;;;;16.89;97.23;101864.91;5014568;28;20026;-83
2023/09/07 06:53:31;;;;;;;10.57;5.30;;;;;;;16.98;97.21;101872.56;5015157;28;20117;-83
2023/09/07 06:55:58;;;;;;;8.23;5.23;;;;;;;17.13;96.42;101856.41;5015642;28;20105;-83
2023/09/07 06:58:23;;;;;;;7.45;4.55;;;;;;;18.34;99.31;101862.59;5014237;28;20291;-83
2023/09/07 07:00:49;;;;;;;5.90;3.80;;;;;;;21.13;93.02;101862.78;5015366;28;20101;-83
2023/09/07 07:03:14;;;;;;;6.03;3.60;;;;;;;23.88;86.17;101866.16;5015144;28;20109;-84
2023/09/07 07:05:39;;;;;;;5.17;3.57;;;;;;;25.89;73.70;101866.72;5014820;28;20066;-84
2023/09/07 07:08:05;;;;;;;4.60;3.30;;;;;;;27.36;69.80;101866.72;5014692;28;20054;-83
2023/09/07 07:10:30;;;;;;;3.87;3.00;;;;;;;28.60;65.92;101869.28;5015332;28;20069;-83
2023/09/07 07:12:55;;;;;;;4.10;2.90;;;;;;;29.51;57.50;101879.25;5014662;28;20026;-83
2023/09/07 07:15:21;;;;;;;3.47;2.80;;;;;;;29.63;53.92;101888.97;5014445;28;20053;-82
2023/09/07 07:17:49;;;;;;;3.17;2.63;;;;;;;28.87;57.49;101875.31;5015330;28;20065;-83
2023/09/07 07:20:14;;;;;;;4.07;3.15;;;;;;;27.75;60.30;101880.84;5014031;28;20030;-83
2023/09/07 07:22:39;;;;;;;4.20;3.30;;;;;;;26.55;60.67;101874.84;5053180;23;20176;-83
2023/09/07 07:25:05;;;;;;;4.33;3.13;;;;;;;25.47;64.60;101879.09;5034544;28;20466;-82
2023/09/07 07:27:31;;;;;;;5.88;3.72;;;;;;;24.53;64.42;101875.75;5033807;28;20025;-83
2023/09/07 07:29:57;;;;;;;4.13;3.50;;;;;;;23.76;67.75;101880.91;5034721;28;20045;-82
2023/09/07 07:32:22;;;;;;;4.50;3.20;;;;;;;23.16;71.38;101879.66;5040376;28;20142;-82
2023/09/07 07:34:47;;;;;;;4.87;3.43;;;;;;;22.63;71.21;101860.28;5053547;28;20029;-83
2023/09/07 07:37:13;;;;;;;3.50;2.90;;;;;;;22.37;74.24;101867.69;5053786;28;20032;-82
2023/09/07 07:39:38;;;;;;;4.83;3.53;;;;;;;22.08;75.00;101869.09;5054498;28;20029;-82
2023/09/07 07:42:20;;;;;;;4.77;3.37;;;;;;;21.74;72.24;101872.41;5053558;28;20061;-82
2023/09/07 07:44:45;;;;;;;6.03;4.22;;;;;;;21.53;74.11;101868.06;5054269;28;20025;-82
2023/09/07 07:47:14;;;;;;;5.37;3.90;;;;;;;21.40;74.98;101868.63;5053503;28;20070;-82
2023/09/07 07:49:39;;;;;;;4.53;3.28;;;;;;;21.38;75.64;101877.56;5053388;28;20455;-82
2023/09/07 07:52:25;;;;;;;4.57;3.40;;;;;;;21.33;75.96;101866.34;5054053;28;20020;-82
2023/09/07 07:54:50;;;;;;;;;;;;;;;21.33;77.13;101872.47;5053411;28;20037;-83
2023/09/07 07:57:15;;;;;;;;;;;;;;;21.31;76.22;101868.19;5054119;28;19913;-83
2023/09/07 07:59:41;;;;;;;6.93;4.30;;;;;;;21.22;76.82;101857.09;5053710;28;19912;-82
2023/09/07 08:02:09;;;;;;;6.20;3.80;;;;;;;21.33;76.33;101863.72;5052907;28;20028;-83
2023/09/07 08:04:38;;;;;;;5.65;3.65;;;;;;;21.29;76.14;101850.63;5053997;28;20025;-83
2023/09/07 08:07:08;;;;;;;5.85;4.03;;;;;;;21.41;76.34;101859.78;5053760;28;20024;-83
2023/09/07 08:09:33;;;;;;;6.30;4.07;;;;;;;21.52;76.60;101861.06;5052966;28;20082;-82
2023/09/07 08:12:02;;;;;;;8.05;4.88;;;;;;;21.53;75.77;101860.16;5054163;28;20029;-82
2023/09/07 08:14:28;;;;;;;8.55;5.20;;;;;;;21.58;75.00;101855.53;5054004;28;20021;-82
2023/09/07 08:16:53;;;;;;;8.73;5.22;;;;;;;21.60;74.64;101854.56;5052856;28;20023;-82
2023/09/07 08:19:19;;;;;;;8.83;4.63;;;;;;;21.61;74.77;101850.16;5047394;28;20033;-82
2023/09/07 08:21:45;;;;;;;8.10;4.80;;;;;;;21.78;74.97;101856.41;5052939;28;20041;-82
2023/09/07 08:24:11;;;;;;;11.05;5.70;;;;;;;21.81;73.55;101851.00;5052598;28;20495;-83
2023/09/07 08:26:39;;;;;;;9.77;5.70;;;;;;;21.83;71.63;101839.41;5053665;28;20033;-82
2023/09/07 08:29:05;;;;;;;7.03;4.32;;;;;;;21.98;73.93;101837.84;5041462;28;20040;-82
2023/09/07 08:31:38;;;;;;;8.20;4.97;;;;;;;22.08;73.61;101832.97;5035335;28;20482;-82
2023/09/07 08:34:05;;;;;;;6.95;4.00;;;;;;;22.21;74.51;101834.09;5038363;28;20029;-83
2023/09/07 08:36:34;;;;;;;6.47;4.00;;;;;;;22.37;72.47;101833.31;5021992;28;20091;-82
2023/09/07 08:39:07;;;;;;;6.63;4.13;;;;;;;22.44;72.94;101841.84;5031338;28;20030;-82
2023/09/07 08:41:43;;;;;;;4.93;3.40;;;;;;;22.55;73.45;101836.88;5046378;28;20075;-83
2023/09/07 08:44:10;;;;;;;4.28;3.15;;;;;;;22.69;73.21;101836.16;5052384;28;20025;-82
2023/09/07 08:46:36;;;;;;;5.47;3.67;;;;;;;22.78;70.60;101832.19;5033061;28;20021;-81
2023/09/07 08:49:04;;;;;;;5.43;3.70;;;;;;;22.89;72.41;101829.84;5012960;28;20038;-83
2023/09/07 08:51:31;;;;;;;4.30;3.20;;;;;;;23.00;72.17;101837.25;5012507;28;20463;-82
2023/09/07 08:53:57;;;;;;;4.32;3.13;;;;;;;23.10;71.25;101833.19;5026672;28;20029;-82
2023/09/07 08:56:23;;;;;;;5.32;3.70;;;;;;;23.21;69.81;101834.44;5033418;28;20501;-82
2023/09/07 08:58:49;;;;;;;7.65;4.30;;;;;;;23.32;68.74;101831.19;5034483;28;20029;-82
2023/09/07 09:01:15;;;;;;;5.68;3.80;;;;;;;23.37;68.82;101829.16;5051906;28;20461;-81
2023/09/07 09:03:42;;;;;;;5.80;3.97;;;;;;;23.49;69.51;101833.81;5032446;28;20032;-82
2023/09/07 09:06:08;;;;;;;5.13;3.67;;;;;;;23.57;70.16;101831.59;5031755;28;20033;-82
2023/09/07 09:08:52;;;;;;;7.10;3.90;;;;;;;23.69;68.34;101823.91;5032138;28;20474;-82
2023/09/07 09:11:18;;;;;;;5.07;3.50;;;;;;;23.77;68.83;101819.00;5030821;28;20033;-82
2023/09/07 09:13:44;;;;;;;5.20;3.70;;;;;;;23.83;67.85;101800.13;5032812;28;20024;-82
2023/09/07 09:16:10;;;;;;;6.45;3.97;;;;;;;24.01;67.22;101822.13;5031846;28;20017;-82
2023/09/07 09:18:36;;;;;;;4.72;3.53;;;;;;;24.10;68.07;101823.38;5032365;28;20079;-82
2023/09/07 09:21:02;;;;;;;4.07;2.95;;;;;;;24.26;68.34;101828.69;5031352;28;20018;-83
2023/09/07 09:23:32;;;;;;;4.35;3.40;;;;;;;24.39;67.08;101825.28;5032011;28;20034;-83
2023/09/07 09:26:03;;;;;;;5.82;3.28;;;;;;;24.44;66.47;101820.59;5032040;28;20026;-84
2023/09/07 09:28:31;;;;;;;5.47;3.67;;;;;;;24.52;66.57;101813.88;5040617;28;20386;-84
2023/09/07 09:30:57;;;;;;;4.88;3.50;;;;;;;24.61;66.41;101817.78;5052406;28;20092;-84
2023/09/07 09:33:23;;;;;;;4.40;2.97;;;;;;;24.75;66.78;101813.47;5051764;28;20056;-83
2023/09/07 09:35:48;;;;;;;;;;;;;;;24.89;64.83;101817.94;5053118;28;20029;-83
2023/09/07 09:38:14;;;;;;;4.88;3.50;;;;;;;24.99;64.66;101811.16;5044715;23;19922;-83
2023/09/07 09:40:39;;;;;;;4.73;3.50;;;;;;;25.11;62.76;101810.38;5012198;28;20060;-84
2023/09/07 09:43:05;;;;;;;5.35;3.60;;;;;;;25.18;61.25;101802.88;5016267;28;20026;-80
2023/09/07 09:45:31;;;;;;;7.57;3.95;;;;;;;25.17;62.35;101800.31;5023336;28;20037;-82
2023/09/07 09:47:58;;;;;;;;;;;;;;;25.31;63.39;101810.94;5013942;28;20042;-82
2023/09/07 09:50:24;;;;;;;4.93;3.50;;;;;;;25.43;63.08;101809.34;5032629;28;19909;-80
2023/09/07 09:52:58;;;;;;;5.32;3.40;;;;;;;25.56;61.14;101804.09;5021236;28;20121;-80
2023/09/07 09:55:23;;;;;;;6.75;3.65;;;;;;;25.65;60.23;101806.19;5011628;28;20548;-81
2023/09/07 09:57:50;;;;;;;4.80;3.73;;;;;;;25.74;59.46;101802.06;5011987;28;20030;-82
2023/09/07 10:00:25;;;;;;;;;;;;;;;25.78;60.39;101808.91;5024969;28;20322;-82
2023/09/07 10:03:17;;;;;;;5.25;3.60;;;;;;;25.92;59.79;101810.66;5031547;28;19917;-83
2023/09/07 10:05:44;;;;;;;5.32;3.67;;;;;;;25.97;60.00;101794.38;5012186;28;20179;-82
2023/09/07 10:08:13;;;;;;;3.65;2.90;;;;;;;26.09;57.91;101790.06;5011491;28;20474;-83
2023/09/07 10:10:38;;;;;;;3.92;3.08;;;;;;;26.24;60.53;101798.88;5012679;28;20131;-84
2023/09/07 10:13:05;;;;;;;3.85;2.80;;;;;;;26.40;59.99;101801.34;5014919;28;20605;-84
2023/09/07 10:15:35;;;;;;;2.92;2.60;;;;;;;26.56;58.75;101798.50;5020121;28;20409;-84
2023/09/07 10:18:07;;;;;;;3.10;2.80;;;;;;;26.70;60.20;101797.53;5034866;28;20082;-83
2023/09/07 10:20:52;;;;;;;3.88;2.70;;;;;;;26.87;55.62;101801.72;5035999;28;20440;-84
2023/09/07 10:23:19;;;;;;;4.28;3.20;;;;;;;26.95;58.13;101802.91;5035259;28;20373;-84
2023/09/07 10:25:52;;;;;;;4.28;3.30;;;;;;;27.02;56.88;101798.00;5033992;28;20076;-84
2023/09/07 10:28:19;;;;;;;3.72;3.20;;;;;;;27.09;57.64;101795.75;5033844;28;20037;-84
2023/09/07 10:30:45;;;;;;;6.28;3.72;;;;;;;27.11;56.47;101797.34;5015593;28;20064;-83
2023/09/07 10:33:20;;;;;;;5.88;3.75;;;;;;;27.10;53.81;101790.31;5015295;28;20049;-83
2023/09/07 10:35:46;;;;;;;7.05;4.30;;;;;;;27.11;54.14;101792.00;5015055;28;20367;-82
2023/09/07 10:38:14;;;;;;;5.30;4.00;;;;;;;27.19;56.04;101791.47;5016393;28;20045;-83
2023/09/07 10:40:39;;;;;;;4.57;3.50;;;;;;;27.32;55.64;101779.94;5016424;28;20045;-83
2023/09/07 10:43:05;;;;;;;;;;;;;;;27.45;56.29;101786.13;5033230;28;20386;-83
2023/09/07 10:45:30;;;;;;;6.40;4.10;;;;;;;27.51;51.93;101783.00;5016193;28;19975;-83
2023/09/07 10:47:55;;;;;;;4.93;3.30;;;;;;;27.63;56.29;101775.06;5033081;28;20297;-83
2023/09/07 10:50:21;;;;;;;5.78;4.13;;;;;;;27.68;50.07;101778.25;5034609;28;20284;-83
2023/09/07 10:52:46;;;;;;;4.73;3.40;;;;;;;27.73;51.12;101776.97;5034724;28;20171;-81
2023/09/07 10:55:11;;;;;;;7.27;3.90;;;;;;;27.61;49.84;101767.19;5035163;28;20280;-83
2023/09/07 10:57:44;;;;;;;7.38;4.10;;;;;;;27.42;48.17;101772.97;5032403;28;20295;-83
2023/09/07 11:00:11;;;;;;;6.25;3.95;;;;;;;27.44;51.56;101763.94;5022359;28;20030;-83
2023/09/07 11:02:40;;;;;;;5.00;3.58;;;;;;;27.66;50.44;101772.19;5034307;28;20032;-82
2023/09/07 11:05:06;;;;;;;7.97;4.10;;;;;;;27.65;47.30;101759.81;5027240;28;20026;-82
2023/09/07 11:07:32;;;;;;;4.60;3.70;;;;;;;27.80;50.60;101764.03;5015321;28;20033;-83
2023/09/07 11:09:58;;;;;;;4.45;3.55;;;;;;;27.92;47.90;101750.75;5015153;28;20024;-82
2023/09/07 11:12:23;;;;;;;;;;;;;;;28.07;51.25;101748.72;5014415;28;20022;-82
2023/09/07 11:14:50;;;;;;;3.88;3.38;;;;;;;28.23;50.84;101751.94;5015068;28;20012;-83
2023/09/07 11:17:16;;;;;;;5.05;3.42;;;;;;;28.36;50.29;101749.19;5021136;28;20041;-83
2023/09/07 11:19:41;;;;;;;;;;;;;;;28.46;50.42;101749.31;5034092;28;20469;-83
2023/09/07 11:22:10;;;;;;;3.90;3.07;;;;;;;28.55;49.53;101747.75;5034722;28;19959;-83
2023/09/07 11:24:35;;;;;;;4.15;3.20;;;;;;;28.58;49.54;101756.38;5033811;28;20276;-83